Terminal Aerodrome Forecast
Issued by NWS Shreveport, LA

Home | Current Version | Previous Version | Text Only | Print | Product List | Glossary On
Versions: 1 2 3 4 5 6 7 8 9 10 11 12 13
000
FTUS44 KSHV 030522
TAFMLU
TAF
KMLU 030522Z 0306/0406 00000KT P6SM SCT100 SCT250
     FM031500 14005KT P6SM SCT040 SCT120 SCT250
     FM031800 15006KT P6SM SCT050 SCT250
     FM040000 14004KT P6SM FEW060 SCT250=

USA.gov is the U.S. government's official web portal to all federal, state and local government web resources and services.